sensor_id;sensor_type;location;lat;lon;timestamp;P1;durP1;ratioP1;P2;durP2;ratioP2
6282;SDS011;3174;53.486;9.568;2023-04-03T00:00:58;5.00;;;1.90;;
6282;SDS011;3174;53.486;9.568;2023-04-03T00:03:26;5.17;;;1.60;;
6282;SDS011;3174;53.486;9.568;2023-04-03T00:05:54;2.40;;;1.77;;
6282;SDS011;3174;53.486;9.568;2023-04-03T00:08:22;2.60;;;1.70;;
6282;SDS011;3174;53.486;9.568;2023-04-03T00:10:50;4.23;;;1.80;;
6282;SDS011;3174;53.486;9.568;2023-04-03T00:13:18;3.13;;;1.40;;
6282;SDS011;3174;53.486;9.568;2023-04-03T00:15:48;3.60;;;1.43;;
6282;SDS011;3174;53.486;9.568;2023-04-03T00:18:16;2.73;;;1.27;;
6282;SDS011;3174;53.486;9.568;2023-04-03T00:20:44;2.57;;;1.10;;
6282;SDS011;3174;53.486;9.568;2023-04-03T00:23:12;2.90;;;1.40;;
6282;SDS011;3174;53.486;9.568;2023-04-03T00:25:40;4.20;;;1.70;;
6282;SDS011;3174;53.486;9.568;2023-04-03T00:28:08;2.03;;;1.60;;
6282;SDS011;3174;53.486;9.568;2023-04-03T00:30:36;2.20;;;1.67;;
6282;SDS011;3174;53.486;9.568;2023-04-03T00:33:06;3.27;;;1.70;;
6282;SDS011;3174;53.486;9.568;2023-04-03T00:35:34;1.73;;;1.33;;
6282;SDS011;3174;53.486;9.568;2023-04-03T00:38:02;2.90;;;1.40;;
6282;SDS011;3174;53.486;9.568;2023-04-03T00:40:33;2.17;;;1.40;;
6282;SDS011;3174;53.486;9.568;2023-04-03T00:43:02;4.93;;;1.80;;
6282;SDS011;3174;53.486;9.568;2023-04-03T00:45:37;1.43;;;1.27;;
6282;SDS011;3174;53.486;9.568;2023-04-03T00:48:08;3.83;;;1.40;;
6282;SDS011;3174;53.486;9.568;2023-04-03T00:50:39;3.30;;;1.47;;
6282;SDS011;3174;53.486;9.568;2023-04-03T00:53:08;3.50;;;1.40;;
6282;SDS011;3174;53.486;9.568;2023-04-03T00:55:38;2.07;;;1.33;;
6282;SDS011;3174;53.486;9.568;2023-04-03T00:58:07;6.03;;;1.33;;
6282;SDS011;3174;53.486;9.568;2023-04-03T01:00:35;2.57;;;1.27;;
6282;SDS011;3174;53.486;9.568;2023-04-03T01:03:05;4.30;;;1.53;;
6282;SDS011;3174;53.486;9.568;2023-04-03T01:05:34;5.30;;;1.57;;
6282;SDS011;3174;53.486;9.568;2023-04-03T01:08:02;4.33;;;1.67;;
6282;SDS011;3174;53.486;9.568;2023-04-03T01:10:30;6.03;;;1.47;;
6282;SDS011;3174;53.486;9.568;2023-04-03T01:12:58;5.03;;;1.57;;
6282;SDS011;3174;53.486;9.568;2023-04-03T01:15:27;1.63;;;0.97;;
6282;SDS011;3174;53.486;9.568;2023-04-03T01:17:59;5.17;;;1.40;;
6282;SDS011;3174;53.486;9.568;2023-04-03T01:23:51;3.33;;;1.30;;
6282;SDS011;3174;53.486;9.568;2023-04-03T01:26:23;3.37;;;1.40;;
6282;SDS011;3174;53.486;9.568;2023-04-03T01:28:53;1.33;;;1.00;;
6282;SDS011;3174;53.486;9.568;2023-04-03T01:31:22;1.63;;;1.20;;
6282;SDS011;3174;53.486;9.568;2023-04-03T01:33:54;3.17;;;1.30;;
6282;SDS011;3174;53.486;9.568;2023-04-03T01:36:23;1.80;;;1.23;;
6282;SDS011;3174;53.486;9.568;2023-04-03T01:38:53;4.60;;;1.83;;
6282;SDS011;3174;53.486;9.568;2023-04-03T01:41:21;2.80;;;1.47;;
6282;SDS011;3174;53.486;9.568;2023-04-03T01:43:50;2.57;;;1.40;;
6282;SDS011;3174;53.486;9.568;2023-04-03T01:46:18;3.97;;;1.50;;
6282;SDS011;3174;53.486;9.568;2023-04-03T01:48:47;2.67;;;1.10;;
6282;SDS011;3174;53.486;9.568;2023-04-03T01:51:17;2.37;;;1.30;;
6282;SDS011;3174;53.486;9.568;2023-04-03T01:53:45;2.37;;;1.40;;
6282;SDS011;3174;53.486;9.568;2023-04-03T01:56:13;3.83;;;1.30;;
6282;SDS011;3174;53.486;9.568;2023-04-03T01:58:41;2.20;;;1.07;;
6282;SDS011;3174;53.486;9.568;2023-04-03T02:01:09;2.30;;;1.17;;
6282;SDS011;3174;53.486;9.568;2023-04-03T02:03:37;1.33;;;1.10;;
6282;SDS011;3174;53.486;9.568;2023-04-03T02:06:05;3.30;;;1.40;;
6282;SDS011;3174;53.486;9.568;2023-04-03T02:08:35;3.03;;;0.93;;
6282;SDS011;3174;53.486;9.568;2023-04-03T02:11:03;1.83;;;1.20;;
6282;SDS011;3174;53.486;9.568;2023-04-03T02:13:31;5.00;;;1.60;;
6282;SDS011;3174;53.486;9.568;2023-04-03T02:15:59;9.33;;;1.70;;
6282;SDS011;3174;53.486;9.568;2023-04-03T02:18:27;2.97;;;1.60;;
6282;SDS011;3174;53.486;9.568;2023-04-03T02:20:55;2.87;;;1.17;;
6282;SDS011;3174;53.486;9.568;2023-04-03T02:23:23;3.23;;;1.27;;
6282;SDS011;3174;53.486;9.568;2023-04-03T02:25:52;2.03;;;1.27;;
6282;SDS011;3174;53.486;9.568;2023-04-03T02:28:20;4.70;;;1.97;;
6282;SDS011;3174;53.486;9.568;2023-04-03T02:30:48;5.00;;;1.63;;
6282;SDS011;3174;53.486;9.568;2023-04-03T02:33:16;2.77;;;1.23;;
6282;SDS011;3174;53.486;9.568;2023-04-03T02:35:44;2.17;;;1.17;;
6282;SDS011;3174;53.486;9.568;2023-04-03T02:38:19;2.87;;;1.30;;
6282;SDS011;3174;53.486;9.568;2023-04-03T02:40:47;1.43;;;1.30;;
6282;SDS011;3174;53.486;9.568;2023-04-03T02:43:16;2.57;;;1.20;;
6282;SDS011;3174;53.486;9.568;2023-04-03T02:45:45;1.03;;;0.97;;
6282;SDS011;3174;53.486;9.568;2023-04-03T02:48:13;1.93;;;1.27;;
6282;SDS011;3174;53.486;9.568;2023-04-03T02:50:43;2.30;;;1.37;;
6282;SDS011;3174;53.486;9.568;2023-04-03T02:53:11;7.27;;;1.47;;
6282;SDS011;3174;53.486;9.568;2023-04-03T02:55:38;5.93;;;1.43;;
6282;SDS011;3174;53.486;9.568;2023-04-03T02:58:06;2.57;;;1.50;;
6282;SDS011;3174;53.486;9.568;2023-04-03T03:00:36;2.07;;;1.00;;
6282;SDS011;3174;53.486;9.568;2023-04-03T03:03:05;1.50;;;0.97;;
6282;SDS011;3174;53.486;9.568;2023-04-03T03:05:33;3.17;;;1.27;;
6282;SDS011;3174;53.486;9.568;2023-04-03T03:08:01;5.80;;;1.67;;
6282;SDS011;3174;53.486;9.568;2023-04-03T03:10:29;2.87;;;1.30;;
6282;SDS011;3174;53.486;9.568;2023-04-03T03:12:57;1.50;;;1.20;;
6282;SDS011;3174;53.486;9.568;2023-04-03T03:15:25;3.77;;;1.97;;
6282;SDS011;3174;53.486;9.568;2023-04-03T03:17:54;3.70;;;1.47;;
6282;SDS011;3174;53.486;9.568;2023-04-03T03:20:22;1.80;;;1.30;;
6282;SDS011;3174;53.486;9.568;2023-04-03T03:22:50;3.13;;;1.40;;
6282;SDS011;3174;53.486;9.568;2023-04-03T03:25:18;4.17;;;1.87;;
6282;SDS011;3174;53.486;9.568;2023-04-03T03:27:46;2.57;;;1.57;;
6282;SDS011;3174;53.486;9.568;2023-04-03T03:30:14;4.03;;;1.50;;
6282;SDS011;3174;53.486;9.568;2023-04-03T03:32:42;2.80;;;1.30;;
6282;SDS011;3174;53.486;9.568;2023-04-03T03:35:11;3.20;;;1.57;;
6282;SDS011;3174;53.486;9.568;2023-04-03T03:37:39;4.17;;;1.40;;
6282;SDS011;3174;53.486;9.568;2023-04-03T03:40:08;2.60;;;1.50;;
6282;SDS011;3174;53.486;9.568;2023-04-03T03:42:38;6.57;;;1.67;;
6282;SDS011;3174;53.486;9.568;2023-04-03T03:45:07;2.73;;;1.40;;
6282;SDS011;3174;53.486;9.568;2023-04-03T03:47:36;2.93;;;1.67;;
6282;SDS011;3174;53.486;9.568;2023-04-03T03:50:04;3.17;;;1.50;;
6282;SDS011;3174;53.486;9.568;2023-04-03T03:52:35;4.63;;;1.40;;
6282;SDS011;3174;53.486;9.568;2023-04-03T03:55:03;6.57;;;1.27;;
6282;SDS011;3174;53.486;9.568;2023-04-03T03:57:32;4.70;;;1.63;;
6282;SDS011;3174;53.486;9.568;2023-04-03T04:00:00;1.60;;;1.20;;
6282;SDS011;3174;53.486;9.568;2023-04-03T04:02:28;3.17;;;1.60;;
6282;SDS011;3174;53.486;9.568;2023-04-03T04:04:56;5.27;;;1.80;;
6282;SDS011;3174;53.486;9.568;2023-04-03T04:07:24;4.33;;;1.70;;
6282;SDS011;3174;53.486;9.568;2023-04-03T04:09:55;3.47;;;1.47;;
6282;SDS011;3174;53.486;9.568;2023-04-03T04:12:23;3.77;;;1.63;;
6282;SDS011;3174;53.486;9.568;2023-04-03T04:14:51;2.30;;;1.40;;
6282;SDS011;3174;53.486;9.568;2023-04-03T04:17:19;3.30;;;1.27;;
6282;SDS011;3174;53.486;9.568;2023-04-03T04:19:47;3.33;;;1.53;;
6282;SDS011;3174;53.486;9.568;2023-04-03T04:22:15;2.37;;;1.37;;
6282;SDS011;3174;53.486;9.568;2023-04-03T04:24:43;6.53;;;1.60;;
6282;SDS011;3174;53.486;9.568;2023-04-03T04:27:12;6.83;;;1.53;;
6282;SDS011;3174;53.486;9.568;2023-04-03T04:29:41;1.87;;;1.40;;
6282;SDS011;3174;53.486;9.568;2023-04-03T04:32:09;4.60;;;1.50;;
6282;SDS011;3174;53.486;9.568;2023-04-03T04:34:37;4.47;;;1.50;;
6282;SDS011;3174;53.486;9.568;2023-04-03T04:37:05;4.83;;;1.53;;
6282;SDS011;3174;53.486;9.568;2023-04-03T04:39:33;4.60;;;1.67;;
6282;SDS011;3174;53.486;9.568;2023-04-03T04:42:02;3.10;;;1.60;;
6282;SDS011;3174;53.486;9.568;2023-04-03T04:44:31;2.07;;;1.40;;
6282;SDS011;3174;53.486;9.568;2023-04-03T04:46:59;4.53;;;2.10;;
6282;SDS011;3174;53.486;9.568;2023-04-03T04:49:27;3.87;;;1.77;;
6282;SDS011;3174;53.486;9.568;2023-04-03T04:51:55;3.37;;;1.50;;
6282;SDS011;3174;53.486;9.568;2023-04-03T04:54:23;2.73;;;1.60;;
6282;SDS011;3174;53.486;9.568;2023-04-03T04:56:51;3.90;;;1.87;;
6282;SDS011;3174;53.486;9.568;2023-04-03T04:59:19;3.23;;;1.63;;
6282;SDS011;3174;53.486;9.568;2023-04-03T05:01:48;3.00;;;1.40;;
6282;SDS011;3174;53.486;9.568;2023-04-03T05:04:16;4.17;;;1.60;;
6282;SDS011;3174;53.486;9.568;2023-04-03T05:06:45;3.43;;;1.50;;
6282;SDS011;3174;53.486;9.568;2023-04-03T05:09:12;7.50;;;1.63;;
6282;SDS011;3174;53.486;9.568;2023-04-03T05:11:40;2.23;;;1.67;;
6282;SDS011;3174;53.486;9.568;2023-04-03T05:14:09;2.80;;;1.53;;
6282;SDS011;3174;53.486;9.568;2023-04-03T05:16:37;2.23;;;1.27;;
6282;SDS011;3174;53.486;9.568;2023-04-03T05:19:06;2.57;;;1.57;;
6282;SDS011;3174;53.486;9.568;2023-04-03T05:21:34;3.30;;;1.60;;
6282;SDS011;3174;53.486;9.568;2023-04-03T05:24:02;5.30;;;1.63;;
6282;SDS011;3174;53.486;9.568;2023-04-03T05:26:30;3.93;;;2.03;;
6282;SDS011;3174;53.486;9.568;2023-04-03T05:28:59;6.00;;;1.77;;
6282;SDS011;3174;53.486;9.568;2023-04-03T05:31:27;4.63;;;1.60;;
6282;SDS011;3174;53.486;9.568;2023-04-03T05:33:56;2.50;;;1.50;;
6282;SDS011;3174;53.486;9.568;2023-04-03T05:36:25;7.03;;;1.33;;
6282;SDS011;3174;53.486;9.568;2023-04-03T05:38:53;2.87;;;1.40;;
6282;SDS011;3174;53.486;9.568;2023-04-03T05:41:22;5.43;;;1.57;;
6282;SDS011;3174;53.486;9.568;2023-04-03T05:43:51;2.33;;;1.63;;
6282;SDS011;3174;53.486;9.568;2023-04-03T05:46:19;4.03;;;1.80;;
6282;SDS011;3174;53.486;9.568;2023-04-03T05:48:48;2.27;;;1.33;;
6282;SDS011;3174;53.486;9.568;2023-04-03T05:51:17;2.67;;;1.70;;
6282;SDS011;3174;53.486;9.568;2023-04-03T05:53:47;5.77;;;1.77;;
6282;SDS011;3174;53.486;9.568;2023-04-03T05:56:16;5.47;;;1.77;;
6282;SDS011;3174;53.486;9.568;2023-04-03T05:58:44;2.53;;;1.00;;
6282;SDS011;3174;53.486;9.568;2023-04-03T06:01:12;4.03;;;1.50;;
6282;SDS011;3174;53.486;9.568;2023-04-03T06:03:41;4.20;;;1.53;;
6282;SDS011;3174;53.486;9.568;2023-04-03T06:06:10;3.70;;;1.40;;
6282;SDS011;3174;53.486;9.568;2023-04-03T06:08:40;2.83;;;1.43;;
6282;SDS011;3174;53.486;9.568;2023-04-03T06:11:11;1.50;;;1.40;;
6282;SDS011;3174;53.486;9.568;2023-04-03T06:13:39;4.20;;;1.40;;
6282;SDS011;3174;53.486;9.568;2023-04-03T06:16:08;3.60;;;1.50;;
6282;SDS011;3174;53.486;9.568;2023-04-03T06:18:36;2.93;;;1.87;;
6282;SDS011;3174;53.486;9.568;2023-04-03T06:21:04;3.50;;;1.57;;
6282;SDS011;3174;53.486;9.568;2023-04-03T06:23:34;2.80;;;1.80;;
6282;SDS011;3174;53.486;9.568;2023-04-03T06:26:02;3.00;;;1.67;;
6282;SDS011;3174;53.486;9.568;2023-04-03T06:28:31;2.97;;;1.40;;
6282;SDS011;3174;53.486;9.568;2023-04-03T06:30:59;5.03;;;1.80;;
6282;SDS011;3174;53.486;9.568;2023-04-03T06:33:27;2.47;;;1.37;;
6282;SDS011;3174;53.486;9.568;2023-04-03T06:35:56;4.03;;;1.67;;
6282;SDS011;3174;53.486;9.568;2023-04-03T06:38:24;5.00;;;1.50;;
6282;SDS011;3174;53.486;9.568;2023-04-03T06:40:52;2.60;;;1.50;;
6282;SDS011;3174;53.486;9.568;2023-04-03T06:43:20;3.97;;;1.80;;
6282;SDS011;3174;53.486;9.568;2023-04-03T06:45:51;4.83;;;1.60;;
6282;SDS011;3174;53.486;9.568;2023-04-03T06:48:19;3.20;;;1.37;;
6282;SDS011;3174;53.486;9.568;2023-04-03T06:50:47;4.00;;;1.67;;
6282;SDS011;3174;53.486;9.568;2023-04-03T06:53:15;5.70;;;1.70;;
6282;SDS011;3174;53.486;9.568;2023-04-03T06:55:43;4.70;;;1.70;;
6282;SDS011;3174;53.486;9.568;2023-04-03T06:58:11;5.53;;;1.73;;
6282;SDS011;3174;53.486;9.568;2023-04-03T07:00:40;2.60;;;1.23;;
6282;SDS011;3174;53.486;9.568;2023-04-03T07:03:09;5.90;;;1.60;;
6282;SDS011;3174;53.486;9.568;2023-04-03T07:05:37;4.33;;;2.20;;
6282;SDS011;3174;53.486;9.568;2023-04-03T07:08:06;3.37;;;1.40;;
6282;SDS011;3174;53.486;9.568;2023-04-03T07:10:34;5.27;;;1.60;;
6282;SDS011;3174;53.486;9.568;2023-04-03T07:13:02;5.13;;;1.53;;
6282;SDS011;3174;53.486;9.568;2023-04-03T07:15:30;4.80;;;1.60;;
6282;SDS011;3174;53.486;9.568;2023-04-03T07:17:58;3.07;;;1.63;;
6282;SDS011;3174;53.486;9.568;2023-04-03T07:20:27;3.70;;;1.30;;
6282;SDS011;3174;53.486;9.568;2023-04-03T07:22:55;1.63;;;1.17;;
6282;SDS011;3174;53.486;9.568;2023-04-03T07:25:23;2.13;;;1.27;;
6282;SDS011;3174;53.486;9.568;2023-04-03T07:27:51;1.40;;;1.20;;
6282;SDS011;3174;53.486;9.568;2023-04-03T07:30:20;3.20;;;1.60;;
6282;SDS011;3174;53.486;9.568;2023-04-03T07:32:49;4.23;;;1.40;;
6282;SDS011;3174;53.486;9.568;2023-04-03T07:35:17;2.97;;;1.50;;
6282;SDS011;3174;53.486;9.568;2023-04-03T07:37:47;4.30;;;1.30;;
6282;SDS011;3174;53.486;9.568;2023-04-03T07:40:15;2.87;;;1.33;;
6282;SDS011;3174;53.486;9.568;2023-04-03T07:42:45;1.60;;;1.07;;
6282;SDS011;3174;53.486;9.568;2023-04-03T07:45:12;4.60;;;1.30;;
6282;SDS011;3174;53.486;9.568;2023-04-03T07:47:41;4.50;;;1.20;;
6282;SDS011;3174;53.486;9.568;2023-04-03T07:50:09;4.20;;;1.23;;
6282;SDS011;3174;53.486;9.568;2023-04-03T07:52:37;4.03;;;1.50;;
6282;SDS011;3174;53.486;9.568;2023-04-03T07:55:07;4.33;;;1.80;;
6282;SDS011;3174;53.486;9.568;2023-04-03T07:57:36;4.70;;;1.63;;
6282;SDS011;3174;53.486;9.568;2023-04-03T08:00:04;3.20;;;1.33;;
6282;SDS011;3174;53.486;9.568;2023-04-03T08:02:33;4.70;;;1.53;;
6282;SDS011;3174;53.486;9.568;2023-04-03T08:05:01;1.67;;;1.20;;
6282;SDS011;3174;53.486;9.568;2023-04-03T08:07:29;2.70;;;1.33;;
6282;SDS011;3174;53.486;9.568;2023-04-03T08:09:57;1.60;;;1.37;;
6282;SDS011;3174;53.486;9.568;2023-04-03T08:12:27;2.40;;;1.07;;
6282;SDS011;3174;53.486;9.568;2023-04-03T08:14:56;4.47;;;1.40;;
6282;SDS011;3174;53.486;9.568;2023-04-03T08:17:24;13.90;;;4.83;;
6282;SDS011;3174;53.486;9.568;2023-04-03T08:19:52;6.53;;;3.60;;
6282;SDS011;3174;53.486;9.568;2023-04-03T08:22:22;4.00;;;2.40;;
6282;SDS011;3174;53.486;9.568;2023-04-03T08:24:50;6.00;;;2.10;;
6282;SDS011;3174;53.486;9.568;2023-04-03T08:27:25;6.03;;;2.10;;
6282;SDS011;3174;53.486;9.568;2023-04-03T08:29:54;3.77;;;2.10;;
6282;SDS011;3174;53.486;9.568;2023-04-03T08:32:23;6.03;;;2.13;;
6282;SDS011;3174;53.486;9.568;2023-04-03T08:34:51;2.93;;;1.67;;
6282;SDS011;3174;53.486;9.568;2023-04-03T08:37:20;5.33;;;1.63;;
6282;SDS011;3174;53.486;9.568;2023-04-03T08:39:48;2.30;;;1.50;;
6282;SDS011;3174;53.486;9.568;2023-04-03T08:42:18;6.27;;;1.73;;
6282;SDS011;3174;53.486;9.568;2023-04-03T08:44:52;1.30;;;1.07;;
6282;SDS011;3174;53.486;9.568;2023-04-03T08:47:26;3.23;;;0.97;;
6282;SDS011;3174;53.486;9.568;2023-04-03T08:49:58;1.70;;;1.07;;
6282;SDS011;3174;53.486;9.568;2023-04-03T08:52:28;2.13;;;1.10;;
6282;SDS011;3174;53.486;9.568;2023-04-03T08:55:02;2.43;;;1.13;;
6282;SDS011;3174;53.486;9.568;2023-04-03T08:57:33;2.07;;;0.97;;
6282;SDS011;3174;53.486;9.568;2023-04-03T09:00:05;1.87;;;1.10;;
6282;SDS011;3174;53.486;9.568;2023-04-03T09:02:40;1.90;;;1.13;;
6282;SDS011;3174;53.486;9.568;2023-04-03T09:05:11;4.40;;;0.90;;
6282;SDS011;3174;53.486;9.568;2023-04-03T09:07:42;4.23;;;1.00;;
6282;SDS011;3174;53.486;9.568;2023-04-03T09:10:15;1.87;;;1.00;;
6282;SDS011;3174;53.486;9.568;2023-04-03T09:12:46;2.43;;;0.77;;
6282;SDS011;3174;53.486;9.568;2023-04-03T09:15:20;3.27;;;1.00;;
6282;SDS011;3174;53.486;9.568;2023-04-03T09:18:04;2.70;;;1.00;;
6282;SDS011;3174;53.486;9.568;2023-04-03T09:20:39;2.23;;;1.00;;
6282;SDS011;3174;53.486;9.568;2023-04-03T09:23:17;2.10;;;0.93;;
6282;SDS011;3174;53.486;9.568;2023-04-03T09:25:49;3.63;;;0.90;;
6282;SDS011;3174;53.486;9.568;2023-04-03T09:28:20;3.43;;;1.10;;
6282;SDS011;3174;53.486;9.568;2023-04-03T09:30:50;2.40;;;0.83;;
6282;SDS011;3174;53.486;9.568;2023-04-03T09:33:17;2.07;;;1.00;;
6282;SDS011;3174;53.486;9.568;2023-04-03T09:35:46;2.27;;;1.13;;
6282;SDS011;3174;53.486;9.568;2023-04-03T09:38:16;1.53;;;1.30;;
6282;SDS011;3174;53.486;9.568;2023-04-03T09:40:46;2.20;;;1.10;;
6282;SDS011;3174;53.486;9.568;2023-04-03T09:43:20;2.07;;;1.03;;
6282;SDS011;3174;53.486;9.568;2023-04-03T09:45:52;1.60;;;0.80;;
6282;SDS011;3174;53.486;9.568;2023-04-03T09:48:21;1.47;;;0.77;;
6282;SDS011;3174;53.486;9.568;2023-04-03T09:50:55;0.80;;;0.70;;
6282;SDS011;3174;53.486;9.568;2023-04-03T09:53:29;4.57;;;1.20;;
6282;SDS011;3174;53.486;9.568;2023-04-03T09:56:00;1.70;;;0.90;;
6282;SDS011;3174;53.486;9.568;2023-04-03T09:58:30;1.03;;;0.77;;
6282;SDS011;3174;53.486;9.568;2023-04-03T10:01:25;0.90;;;0.80;;
6282;SDS011;3174;53.486;9.568;2023-04-03T10:04:08;2.57;;;0.97;;
6282;SDS011;3174;53.486;9.568;2023-04-03T10:06:38;0.97;;;0.90;;
6282;SDS011;3174;53.486;9.568;2023-04-03T10:09:20;1.70;;;0.83;;
6282;SDS011;3174;53.486;9.568;2023-04-03T10:12:02;1.13;;;0.73;;
6282;SDS011;3174;53.486;9.568;2023-04-03T10:14:32;1.50;;;0.90;;
6282;SDS011;3174;53.486;9.568;2023-04-03T10:17:09;0.80;;;0.80;;
6282;SDS011;3174;53.486;9.568;2023-04-03T10:19:44;1.50;;;0.90;;
6282;SDS011;3174;53.486;9.568;2023-04-03T10:22:18;5.40;;;1.17;;
6282;SDS011;3174;53.486;9.568;2023-04-03T10:24:51;1.40;;;1.00;;
6282;SDS011;3174;53.486;9.568;2023-04-03T10:27:24;3.30;;;0.70;;
6282;SDS011;3174;53.486;9.568;2023-04-03T10:29:59;1.00;;;0.80;;
6282;SDS011;3174;53.486;9.568;2023-04-03T10:32:58;2.40;;;0.90;;
6282;SDS011;3174;53.486;9.568;2023-04-03T10:35:35;1.53;;;0.90;;
6282;SDS011;3174;53.486;9.568;2023-04-03T10:38:19;1.17;;;0.70;;
6282;SDS011;3174;53.486;9.568;2023-04-03T10:40:57;2.10;;;0.97;;
6282;SDS011;3174;53.486;9.568;2023-04-03T10:43:32;1.03;;;0.93;;
6282;SDS011;3174;53.486;9.568;2023-04-03T10:46:11;3.40;;;0.80;;
6282;SDS011;3174;53.486;9.568;2023-04-03T10:48:51;3.70;;;1.03;;
6282;SDS011;3174;53.486;9.568;2023-04-03T10:51:28;1.50;;;0.87;;
6282;SDS011;3174;53.486;9.568;2023-04-03T10:54:08;0.97;;;0.80;;
6282;SDS011;3174;53.486;9.568;2023-04-03T10:56:39;1.30;;;0.60;;
6282;SDS011;3174;53.486;9.568;2023-04-03T10:59:14;1.40;;;0.70;;
6282;SDS011;3174;53.486;9.568;2023-04-03T11:01:48;1.43;;;0.70;;
6282;SDS011;3174;53.486;9.568;2023-04-03T11:04:19;0.77;;;0.60;;
6282;SDS011;3174;53.486;9.568;2023-04-03T11:06:49;0.70;;;0.60;;
6282;SDS011;3174;53.486;9.568;2023-04-03T11:09:21;1.80;;;0.90;;
6282;SDS011;3174;53.486;9.568;2023-04-03T11:11:51;2.97;;;0.77;;
6282;SDS011;3174;53.486;9.568;2023-04-03T11:14:24;1.87;;;0.80;;
6282;SDS011;3174;53.486;9.568;2023-04-03T11:16:58;1.63;;;0.90;;
6282;SDS011;3174;53.486;9.568;2023-04-03T11:19:33;1.73;;;0.70;;
6282;SDS011;3174;53.486;9.568;2023-04-03T11:22:05;4.53;;;1.20;;
6282;SDS011;3174;53.486;9.568;2023-04-03T11:24:37;0.67;;;0.60;;
6282;SDS011;3174;53.486;9.568;2023-04-03T11:27:09;0.93;;;0.57;;
6282;SDS011;3174;53.486;9.568;2023-04-03T11:29:42;5.20;;;1.07;;
6282;SDS011;3174;53.486;9.568;2023-04-03T11:32:18;5.07;;;0.90;;
6282;SDS011;3174;53.486;9.568;2023-04-03T11:35:04;1.70;;;1.10;;
6282;SDS011;3174;53.486;9.568;2023-04-03T11:37:34;1.83;;;1.00;;
6282;SDS011;3174;53.486;9.568;2023-04-03T11:40:04;1.33;;;0.50;;
6282;SDS011;3174;53.486;9.568;2023-04-03T11:42:36;2.20;;;0.80;;
6282;SDS011;3174;53.486;9.568;2023-04-03T11:45:23;2.30;;;1.10;;
6282;SDS011;3174;53.486;9.568;2023-04-03T11:47:54;3.20;;;0.90;;
6282;SDS011;3174;53.486;9.568;2023-04-03T11:50:40;1.87;;;0.80;;
6282;SDS011;3174;53.486;9.568;2023-04-03T11:55:56;1.60;;;1.30;;
6282;SDS011;3174;53.486;9.568;2023-04-03T11:58:29;1.70;;;1.00;;
6282;SDS011;3174;53.486;9.568;2023-04-03T12:01:14;2.43;;;1.10;;
6282;SDS011;3174;53.486;9.568;2023-04-03T12:04:27;3.23;;;1.10;;
6282;SDS011;3174;53.486;9.568;2023-04-03T12:07:12;1.27;;;1.10;;
6282;SDS011;3174;53.486;9.568;2023-04-03T12:12:33;4.83;;;1.10;;
6282;SDS011;3174;53.486;9.568;2023-04-03T12:21:14;0.93;;;0.70;;
6282;SDS011;3174;53.486;9.568;2023-04-03T12:26:51;1.03;;;0.80;;
6282;SDS011;3174;53.486;9.568;2023-04-03T12:29:33;0.67;;;0.63;;
6282;SDS011;3174;53.486;9.568;2023-04-03T12:32:09;1.53;;;0.83;;
6282;SDS011;3174;53.486;9.568;2023-04-03T12:34:49;1.37;;;0.83;;
6282;SDS011;3174;53.486;9.568;2023-04-03T12:37:29;1.77;;;0.77;;
6282;SDS011;3174;53.486;9.568;2023-04-03T12:40:10;0.70;;;0.67;;
6282;SDS011;3174;53.486;9.568;2023-04-03T12:42:55;2.03;;;0.87;;
6282;SDS011;3174;53.486;9.568;2023-04-03T12:45:41;2.17;;;0.80;;
6282;SDS011;3174;53.486;9.568;2023-04-03T12:48:13;1.20;;;0.63;;
6282;SDS011;3174;53.486;9.568;2023-04-03T12:50:43;1.43;;;0.57;;
6282;SDS011;3174;53.486;9.568;2023-04-03T12:53:13;1.17;;;0.83;;
6282;SDS011;3174;53.486;9.568;2023-04-03T12:55:45;2.43;;;1.00;;
6282;SDS011;3174;53.486;9.568;2023-04-03T12:58:14;0.97;;;0.80;;
6282;SDS011;3174;53.486;9.568;2023-04-03T13:00:44;1.57;;;0.90;;
6282;SDS011;3174;53.486;9.568;2023-04-03T13:03:20;1.47;;;0.87;;
6282;SDS011;3174;53.486;9.568;2023-04-03T13:05:50;1.67;;;0.83;;
6282;SDS011;3174;53.486;9.568;2023-04-03T13:08:18;0.93;;;0.80;;
6282;SDS011;3174;53.486;9.568;2023-04-03T13:10:50;1.17;;;0.60;;
6282;SDS011;3174;53.486;9.568;2023-04-03T13:13:23;4.50;;;0.77;;
6282;SDS011;3174;53.486;9.568;2023-04-03T13:15:52;1.47;;;0.70;;
6282;SDS011;3174;53.486;9.568;2023-04-03T13:18:26;0.87;;;0.67;;
6282;SDS011;3174;53.486;9.568;2023-04-03T13:21:00;2.60;;;0.80;;
6282;SDS011;3174;53.486;9.568;2023-04-03T13:23:31;2.77;;;0.90;;
6282;SDS011;3174;53.486;9.568;2023-04-03T13:26:01;2.83;;;0.67;;
6282;SDS011;3174;53.486;9.568;2023-04-03T13:28:30;3.73;;;1.10;;
6282;SDS011;3174;53.486;9.568;2023-04-03T13:31:00;2.33;;;1.20;;
6282;SDS011;3174;53.486;9.568;2023-04-03T13:33:32;2.27;;;1.00;;
6282;SDS011;3174;53.486;9.568;2023-04-03T13:36:04;5.77;;;3.77;;
6282;SDS011;3174;53.486;9.568;2023-04-03T13:38:34;4.17;;;1.67;;
6282;SDS011;3174;53.486;9.568;2023-04-03T13:41:05;3.30;;;1.70;;
6282;SDS011;3174;53.486;9.568;2023-04-03T13:43:49;3.97;;;1.73;;
6282;SDS011;3174;53.486;9.568;2023-04-03T13:46:24;4.73;;;2.47;;
6282;SDS011;3174;53.486;9.568;2023-04-03T13:48:55;11.37;;;3.47;;
6282;SDS011;3174;53.486;9.568;2023-04-03T13:51:24;6.70;;;3.20;;
6282;SDS011;3174;53.486;9.568;2023-04-03T13:53:55;7.70;;;3.73;;
6282;SDS011;3174;53.486;9.568;2023-04-03T13:56:27;6.83;;;3.47;;
6282;SDS011;3174;53.486;9.568;2023-04-03T13:59:01;8.13;;;3.47;;
6282;SDS011;3174;53.486;9.568;2023-04-03T14:01:40;11.37;;;5.37;;
6282;SDS011;3174;53.486;9.568;2023-04-03T14:04:12;10.77;;;5.50;;
6282;SDS011;3174;53.486;9.568;2023-04-03T14:06:42;10.00;;;6.20;;
6282;SDS011;3174;53.486;9.568;2023-04-03T14:09:11;5.40;;;3.83;;
6282;SDS011;3174;53.486;9.568;2023-04-03T14:11:41;9.97;;;6.07;;
6282;SDS011;3174;53.486;9.568;2023-04-03T14:14:11;7.70;;;5.10;;
6282;SDS011;3174;53.486;9.568;2023-04-03T14:16:42;5.77;;;3.63;;
6282;SDS011;3174;53.486;9.568;2023-04-03T14:19:17;6.33;;;3.37;;
6282;SDS011;3174;53.486;9.568;2023-04-03T14:21:48;6.00;;;3.60;;
6282;SDS011;3174;53.486;9.568;2023-04-03T14:24:16;7.13;;;3.30;;
6282;SDS011;3174;53.486;9.568;2023-04-03T14:26:46;3.90;;;2.60;;
6282;SDS011;3174;53.486;9.568;2023-04-03T14:29:15;4.10;;;2.47;;
6282;SDS011;3174;53.486;9.568;2023-04-03T14:31:46;4.43;;;1.97;;
6282;SDS011;3174;53.486;9.568;2023-04-03T14:34:25;3.80;;;2.20;;
6282;SDS011;3174;53.486;9.568;2023-04-03T14:36:53;2.27;;;1.10;;
6282;SDS011;3174;53.486;9.568;2023-04-03T14:39:22;3.70;;;1.60;;
6282;SDS011;3174;53.486;9.568;2023-04-03T14:41:51;3.30;;;1.60;;
6282;SDS011;3174;53.486;9.568;2023-04-03T14:44:19;2.00;;;1.30;;
6282;SDS011;3174;53.486;9.568;2023-04-03T14:46:47;3.47;;;1.20;;
6282;SDS011;3174;53.486;9.568;2023-04-03T14:49:23;3.70;;;1.30;;
6282;SDS011;3174;53.486;9.568;2023-04-03T14:51:52;1.53;;;1.20;;
6282;SDS011;3174;53.486;9.568;2023-04-03T14:54:22;2.87;;;1.07;;
6282;SDS011;3174;53.486;9.568;2023-04-03T14:56:56;2.27;;;1.10;;
6282;SDS011;3174;53.486;9.568;2023-04-03T14:59:26;1.57;;;1.07;;
6282;SDS011;3174;53.486;9.568;2023-04-03T15:01:55;1.13;;;0.87;;
6282;SDS011;3174;53.486;9.568;2023-04-03T15:04:23;2.07;;;1.17;;
6282;SDS011;3174;53.486;9.568;2023-04-03T15:06:51;3.03;;;0.80;;
6282;SDS011;3174;53.486;9.568;2023-04-03T15:09:20;1.60;;;0.77;;
6282;SDS011;3174;53.486;9.568;2023-04-03T15:11:50;1.23;;;0.93;;
6282;SDS011;3174;53.486;9.568;2023-04-03T15:14:20;3.13;;;1.10;;
6282;SDS011;3174;53.486;9.568;2023-04-03T15:17:02;1.63;;;1.00;;
6282;SDS011;3174;53.486;9.568;2023-04-03T15:19:31;0.80;;;0.80;;
6282;SDS011;3174;53.486;9.568;2023-04-03T15:22:02;3.10;;;1.87;;
6282;SDS011;3174;53.486;9.568;2023-04-03T15:24:30;1.73;;;0.80;;
6282;SDS011;3174;53.486;9.568;2023-04-03T15:26:58;1.97;;;0.90;;
6282;SDS011;3174;53.486;9.568;2023-04-03T15:29:28;1.33;;;0.70;;
6282;SDS011;3174;53.486;9.568;2023-04-03T15:31:56;1.57;;;0.83;;
6282;SDS011;3174;53.486;9.568;2023-04-03T15:34:24;1.27;;;0.80;;
6282;SDS011;3174;53.486;9.568;2023-04-03T15:36:52;1.63;;;0.70;;
6282;SDS011;3174;53.486;9.568;2023-04-03T15:39:20;1.70;;;0.97;;
6282;SDS011;3174;53.486;9.568;2023-04-03T15:41:49;2.23;;;1.20;;
6282;SDS011;3174;53.486;9.568;2023-04-03T15:44:18;1.70;;;0.90;;
6282;SDS011;3174;53.486;9.568;2023-04-03T15:46:47;1.07;;;0.80;;
6282;SDS011;3174;53.486;9.568;2023-04-03T15:49:17;5.73;;;1.10;;
6282;SDS011;3174;53.486;9.568;2023-04-03T15:51:46;1.60;;;0.90;;
6282;SDS011;3174;53.486;9.568;2023-04-03T15:54:14;2.10;;;1.00;;